sensor_id;sensor_type;location;lat;lon;timestamp;P1;durP1;ratioP1;P2;durP2;ratioP2
71566;SDS011;59403;47.456;19.120;2023-11-22T00:02:18;23.17;;;12.93;;
71566;SDS011;59403;47.456;19.120;2023-11-22T00:04:46;26.67;;;14.18;;
71566;SDS011;59403;47.456;19.120;2023-11-22T00:07:14;24.35;;;14.23;;
71566;SDS011;59403;47.456;19.120;2023-11-22T00:09:44;21.55;;;13.98;;
71566;SDS011;59403;47.456;19.120;2023-11-22T00:12:12;24.40;;;12.63;;
71566;SDS011;59403;47.456;19.120;2023-11-22T00:14:43;21.55;;;12.05;;
71566;SDS011;59403;47.456;19.120;2023-11-22T00:17:10;21.92;;;12.63;;
71566;SDS011;59403;47.456;19.120;2023-11-22T00:19:38;25.88;;;13.25;;
71566;SDS011;59403;47.456;19.120;2023-11-22T00:22:07;23.33;;;13.55;;
71566;SDS011;59403;47.456;19.120;2023-11-22T00:24:38;25.10;;;13.67;;
71566;SDS011;59403;47.456;19.120;2023-11-22T00:27:05;28.20;;;14.85;;
71566;SDS011;59403;47.456;19.120;2023-11-22T00:29:32;26.73;;;14.15;;
71566;SDS011;59403;47.456;19.120;2023-11-22T00:31:59;25.52;;;13.32;;
71566;SDS011;59403;47.456;19.120;2023-11-22T00:34:26;26.15;;;13.38;;
71566;SDS011;59403;47.456;19.120;2023-11-22T00:36:54;24.77;;;14.53;;
71566;SDS011;59403;47.456;19.120;2023-11-22T00:39:24;25.48;;;14.48;;
71566;SDS011;59403;47.456;19.120;2023-11-22T00:41:54;26.85;;;15.02;;
71566;SDS011;59403;47.456;19.120;2023-11-22T00:44:21;31.08;;;15.60;;
71566;SDS011;59403;47.456;19.120;2023-11-22T00:46:48;33.78;;;15.52;;
71566;SDS011;59403;47.456;19.120;2023-11-22T00:49:15;29.93;;;15.37;;
71566;SDS011;59403;47.456;19.120;2023-11-22T00:51:42;32.00;;;16.27;;
71566;SDS011;59403;47.456;19.120;2023-11-22T00:54:10;33.33;;;15.82;;
71566;SDS011;59403;47.456;19.120;2023-11-22T00:56:38;32.28;;;15.45;;
71566;SDS011;59403;47.456;19.120;2023-11-22T00:59:05;32.47;;;15.90;;
71566;SDS011;59403;47.456;19.120;2023-11-22T01:01:33;36.30;;;15.10;;
71566;SDS011;59403;47.456;19.120;2023-11-22T01:04:01;33.17;;;15.90;;
71566;SDS011;59403;47.456;19.120;2023-11-22T01:06:29;36.92;;;16.37;;
71566;SDS011;59403;47.456;19.120;2023-11-22T01:08:57;33.85;;;15.90;;
71566;SDS011;59403;47.456;19.120;2023-11-22T01:11:24;35.65;;;15.63;;
71566;SDS011;59403;47.456;19.120;2023-11-22T01:13:53;35.50;;;15.93;;
71566;SDS011;59403;47.456;19.120;2023-11-22T01:16:20;31.85;;;16.15;;
71566;SDS011;59403;47.456;19.120;2023-11-22T01:18:48;36.45;;;16.30;;
71566;SDS011;59403;47.456;19.120;2023-11-22T01:21:15;33.03;;;17.20;;
71566;SDS011;59403;47.456;19.120;2023-11-22T01:23:42;28.92;;;15.55;;
71566;SDS011;59403;47.456;19.120;2023-11-22T01:26:11;33.30;;;16.10;;
71566;SDS011;59403;47.456;19.120;2023-11-22T01:28:38;32.88;;;15.93;;
71566;SDS011;59403;47.456;19.120;2023-11-22T01:31:12;32.70;;;15.80;;
71566;SDS011;59403;47.456;19.120;2023-11-22T01:33:40;27.45;;;14.45;;
71566;SDS011;59403;47.456;19.120;2023-11-22T01:36:07;27.75;;;14.73;;
71566;SDS011;59403;47.456;19.120;2023-11-22T01:38:34;28.53;;;13.80;;
71566;SDS011;59403;47.456;19.120;2023-11-22T01:41:04;27.60;;;14.63;;
71566;SDS011;59403;47.456;19.120;2023-11-22T01:43:32;27.87;;;13.62;;
71566;SDS011;59403;47.456;19.120;2023-11-22T01:45:59;28.38;;;13.18;;
71566;SDS011;59403;47.456;19.120;2023-11-22T01:48:29;28.50;;;14.25;;
71566;SDS011;59403;47.456;19.120;2023-11-22T01:50:57;24.73;;;12.77;;
71566;SDS011;59403;47.456;19.120;2023-11-22T01:53:25;28.55;;;13.00;;
71566;SDS011;59403;47.456;19.120;2023-11-22T01:55:52;26.23;;;13.20;;
71566;SDS011;59403;47.456;19.120;2023-11-22T01:58:20;25.27;;;12.85;;
71566;SDS011;59403;47.456;19.120;2023-11-22T02:03:23;29.07;;;13.37;;
71566;SDS011;59403;47.456;19.120;2023-11-22T02:05:54;26.58;;;12.68;;
71566;SDS011;59403;47.456;19.120;2023-11-22T02:08:21;23.75;;;12.43;;
71566;SDS011;59403;47.456;19.120;2023-11-22T02:10:56;26.15;;;12.63;;
71566;SDS011;59403;47.456;19.120;2023-11-22T02:13:24;23.70;;;12.00;;
71566;SDS011;59403;47.456;19.120;2023-11-22T02:15:51;26.80;;;12.63;;
71566;SDS011;59403;47.456;19.120;2023-11-22T02:18:21;26.23;;;12.35;;
71566;SDS011;59403;47.456;19.120;2023-11-22T02:20:48;23.77;;;12.20;;
71566;SDS011;59403;47.456;19.120;2023-11-22T02:23:17;26.65;;;11.73;;
71566;SDS011;59403;47.456;19.120;2023-11-22T02:25:45;24.67;;;11.80;;
71566;SDS011;59403;47.456;19.120;2023-11-22T02:28:12;24.27;;;11.30;;
71566;SDS011;59403;47.456;19.120;2023-11-22T02:30:41;23.15;;;10.88;;
71566;SDS011;59403;47.456;19.120;2023-11-22T02:33:09;22.15;;;10.75;;
71566;SDS011;59403;47.456;19.120;2023-11-22T02:35:36;20.05;;;10.90;;
71566;SDS011;59403;47.456;19.120;2023-11-22T02:38:04;19.15;;;9.50;;
71566;SDS011;59403;47.456;19.120;2023-11-22T02:43:23;18.20;;;8.80;;
71566;SDS011;59403;47.456;19.120;2023-11-22T02:45:51;16.70;;;9.45;;
71566;SDS011;59403;47.456;19.120;2023-11-22T02:48:18;17.08;;;8.73;;
71566;SDS011;59403;47.456;19.120;2023-11-22T02:50:49;19.87;;;9.60;;
71566;SDS011;59403;47.456;19.120;2023-11-22T02:53:31;22.37;;;10.30;;
71566;SDS011;59403;47.456;19.120;2023-11-22T02:56:01;24.65;;;10.38;;
71566;SDS011;59403;47.456;19.120;2023-11-22T02:58:28;22.52;;;9.20;;
71566;SDS011;59403;47.456;19.120;2023-11-22T03:00:58;25.05;;;10.70;;
71566;SDS011;59403;47.456;19.120;2023-11-22T03:03:29;22.15;;;10.77;;
71566;SDS011;59403;47.456;19.120;2023-11-22T03:05:56;26.00;;;11.07;;
71566;SDS011;59403;47.456;19.120;2023-11-22T03:08:23;21.73;;;9.68;;
71566;SDS011;59403;47.456;19.120;2023-11-22T03:10:50;21.52;;;10.82;;
71566;SDS011;59403;47.456;19.120;2023-11-22T03:13:19;18.62;;;9.30;;
71566;SDS011;59403;47.456;19.120;2023-11-22T03:15:47;18.83;;;9.95;;
71566;SDS011;59403;47.456;19.120;2023-11-22T03:18:15;21.00;;;9.87;;
71566;SDS011;59403;47.456;19.120;2023-11-22T03:20:43;19.62;;;10.30;;
71566;SDS011;59403;47.456;19.120;2023-11-22T03:23:12;19.98;;;10.40;;
71566;SDS011;59403;47.456;19.120;2023-11-22T03:25:42;20.92;;;10.10;;
71566;SDS011;59403;47.456;19.120;2023-11-22T03:28:09;20.10;;;10.50;;
71566;SDS011;59403;47.456;19.120;2023-11-22T03:33:31;23.95;;;10.45;;
71566;SDS011;59403;47.456;19.120;2023-11-22T03:35:58;20.23;;;9.43;;
71566;SDS011;59403;47.456;19.120;2023-11-22T03:38:25;23.45;;;10.52;;
71566;SDS011;59403;47.456;19.120;2023-11-22T03:40:52;21.50;;;10.50;;
71566;SDS011;59403;47.456;19.120;2023-11-22T03:43:20;22.83;;;11.00;;
71566;SDS011;59403;47.456;19.120;2023-11-22T03:45:47;19.70;;;9.57;;
71566;SDS011;59403;47.456;19.120;2023-11-22T03:48:15;18.12;;;8.90;;
71566;SDS011;59403;47.456;19.120;2023-11-22T03:50:42;18.98;;;9.25;;
71566;SDS011;59403;47.456;19.120;2023-11-22T03:53:11;19.67;;;8.90;;
71566;SDS011;59403;47.456;19.120;2023-11-22T03:55:38;17.33;;;8.70;;
71566;SDS011;59403;47.456;19.120;2023-11-22T03:58:05;18.67;;;8.50;;
71566;SDS011;59403;47.456;19.120;2023-11-22T04:00:33;16.48;;;8.70;;
71566;SDS011;59403;47.456;19.120;2023-11-22T04:03:00;14.43;;;7.30;;
71566;SDS011;59403;47.456;19.120;2023-11-22T04:05:30;13.07;;;6.82;;
71566;SDS011;59403;47.456;19.120;2023-11-22T04:07:57;15.13;;;7.13;;
71566;SDS011;59403;47.456;19.120;2023-11-22T04:10:25;13.93;;;7.28;;
71566;SDS011;59403;47.456;19.120;2023-11-22T04:12:52;12.45;;;7.15;;
71566;SDS011;59403;47.456;19.120;2023-11-22T04:15:20;12.20;;;6.72;;
71566;SDS011;59403;47.456;19.120;2023-11-22T04:17:47;12.85;;;6.97;;
71566;SDS011;59403;47.456;19.120;2023-11-22T04:20:15;13.57;;;6.33;;
71566;SDS011;59403;47.456;19.120;2023-11-22T04:22:45;13.10;;;6.95;;
71566;SDS011;59403;47.456;19.120;2023-11-22T04:25:16;14.77;;;7.68;;
71566;SDS011;59403;47.456;19.120;2023-11-22T04:27:43;12.23;;;7.60;;
71566;SDS011;59403;47.456;19.120;2023-11-22T04:30:11;14.15;;;7.00;;
71566;SDS011;59403;47.456;19.120;2023-11-22T04:32:39;12.10;;;6.50;;
71566;SDS011;59403;47.456;19.120;2023-11-22T04:35:22;11.55;;;6.10;;
71566;SDS011;59403;47.456;19.120;2023-11-22T04:37:51;11.15;;;5.75;;
71566;SDS011;59403;47.456;19.120;2023-11-22T04:40:18;11.23;;;5.53;;
71566;SDS011;59403;47.456;19.120;2023-11-22T04:42:45;12.00;;;6.15;;
71566;SDS011;59403;47.456;19.120;2023-11-22T04:45:13;11.00;;;5.60;;
71566;SDS011;59403;47.456;19.120;2023-11-22T04:47:40;11.25;;;6.07;;
71566;SDS011;59403;47.456;19.120;2023-11-22T04:50:08;12.20;;;6.12;;
71566;SDS011;59403;47.456;19.120;2023-11-22T04:52:36;13.00;;;6.70;;
71566;SDS011;59403;47.456;19.120;2023-11-22T04:55:04;14.18;;;6.70;;
71566;SDS011;59403;47.456;19.120;2023-11-22T04:57:32;14.10;;;6.77;;
71566;SDS011;59403;47.456;19.120;2023-11-22T05:00:00;14.70;;;6.95;;
71566;SDS011;59403;47.456;19.120;2023-11-22T05:02:32;15.60;;;7.10;;
71566;SDS011;59403;47.456;19.120;2023-11-22T05:05:00;12.33;;;6.20;;
71566;SDS011;59403;47.456;19.120;2023-11-22T05:07:30;16.98;;;8.07;;
71566;SDS011;59403;47.456;19.120;2023-11-22T05:09:58;19.92;;;8.98;;
71566;SDS011;59403;47.456;19.120;2023-11-22T05:12:27;19.85;;;8.35;;
71566;SDS011;59403;47.456;19.120;2023-11-22T05:14:55;19.40;;;8.30;;
71566;SDS011;59403;47.456;19.120;2023-11-22T05:17:22;19.62;;;8.60;;
71566;SDS011;59403;47.456;19.120;2023-11-22T05:19:49;23.52;;;9.95;;
71566;SDS011;59403;47.456;19.120;2023-11-22T05:22:20;20.33;;;8.88;;
71566;SDS011;59403;47.456;19.120;2023-11-22T05:24:48;18.90;;;8.93;;
71566;SDS011;59403;47.456;19.120;2023-11-22T05:27:16;20.10;;;9.63;;
71566;SDS011;59403;47.456;19.120;2023-11-22T05:29:44;19.70;;;9.38;;
71566;SDS011;59403;47.456;19.120;2023-11-22T05:32:16;21.92;;;8.30;;
71566;SDS011;59403;47.456;19.120;2023-11-22T05:34:48;21.23;;;9.38;;
71566;SDS011;59403;47.456;19.120;2023-11-22T05:37:51;19.15;;;8.55;;
71566;SDS011;59403;47.456;19.120;2023-11-22T05:40:33;19.37;;;8.47;;
71566;SDS011;59403;47.456;19.120;2023-11-22T05:43:01;16.83;;;7.97;;
71566;SDS011;59403;47.456;19.120;2023-11-22T05:45:31;18.85;;;9.20;;
71566;SDS011;59403;47.456;19.120;2023-11-22T05:48:44;17.20;;;7.97;;
71566;SDS011;59403;47.456;19.120;2023-11-22T05:51:16;15.88;;;6.97;;
71566;SDS011;59403;47.456;19.120;2023-11-22T05:53:45;15.73;;;6.60;;
71566;SDS011;59403;47.456;19.120;2023-11-22T05:56:15;14.90;;;6.62;;
71566;SDS011;59403;47.456;19.120;2023-11-22T05:59:12;12.88;;;6.55;;
71566;SDS011;59403;47.456;19.120;2023-11-22T06:02:08;13.30;;;6.25;;
71566;SDS011;59403;47.456;19.120;2023-11-22T06:07:40;11.33;;;5.80;;
71566;SDS011;59403;47.456;19.120;2023-11-22T06:10:08;12.35;;;6.20;;
71566;SDS011;59403;47.456;19.120;2023-11-22T06:12:35;10.20;;;5.18;;
71566;SDS011;59403;47.456;19.120;2023-11-22T06:15:07;13.15;;;6.20;;
71566;SDS011;59403;47.456;19.120;2023-11-22T06:17:40;11.73;;;6.30;;
71566;SDS011;59403;47.456;19.120;2023-11-22T06:20:09;12.20;;;6.57;;
71566;SDS011;59403;47.456;19.120;2023-11-22T06:22:42;12.93;;;6.47;;
71566;SDS011;59403;47.456;19.120;2023-11-22T06:25:12;10.30;;;6.03;;
71566;SDS011;59403;47.456;19.120;2023-11-22T06:27:39;9.38;;;5.22;;
71566;SDS011;59403;47.456;19.120;2023-11-22T06:30:06;10.50;;;5.75;;
71566;SDS011;59403;47.456;19.120;2023-11-22T06:32:34;10.40;;;5.50;;
71566;SDS011;59403;47.456;19.120;2023-11-22T06:35:02;10.60;;;5.40;;
71566;SDS011;59403;47.456;19.120;2023-11-22T06:37:33;12.48;;;5.93;;
71566;SDS011;59403;47.456;19.120;2023-11-22T06:40:04;10.45;;;4.95;;
71566;SDS011;59403;47.456;19.120;2023-11-22T06:42:31;9.07;;;5.50;;
71566;SDS011;59403;47.456;19.120;2023-11-22T06:44:58;11.47;;;5.80;;
71566;SDS011;59403;47.456;19.120;2023-11-22T06:47:26;8.75;;;4.80;;
71566;SDS011;59403;47.456;19.120;2023-11-22T06:49:53;10.48;;;5.22;;
71566;SDS011;59403;47.456;19.120;2023-11-22T06:52:21;9.80;;;5.15;;
71566;SDS011;59403;47.456;19.120;2023-11-22T06:54:48;8.65;;;4.87;;
71566;SDS011;59403;47.456;19.120;2023-11-22T06:57:15;13.00;;;5.50;;
71566;SDS011;59403;47.456;19.120;2023-11-22T06:59:42;10.02;;;5.05;;
71566;SDS011;59403;47.456;19.120;2023-11-22T07:02:11;10.57;;;5.87;;
71566;SDS011;59403;47.456;19.120;2023-11-22T07:04:39;9.25;;;4.90;;
71566;SDS011;59403;47.456;19.120;2023-11-22T07:07:06;12.27;;;5.78;;
71566;SDS011;59403;47.456;19.120;2023-11-22T07:09:37;11.80;;;5.13;;
71566;SDS011;59403;47.456;19.120;2023-11-22T07:12:08;11.40;;;5.53;;
71566;SDS011;59403;47.456;19.120;2023-11-22T07:14:36;9.82;;;5.50;;
71566;SDS011;59403;47.456;19.120;2023-11-22T07:17:03;10.95;;;5.55;;
71566;SDS011;59403;47.456;19.120;2023-11-22T07:19:32;12.65;;;5.60;;
71566;SDS011;59403;47.456;19.120;2023-11-22T07:22:03;11.20;;;5.80;;
71566;SDS011;59403;47.456;19.120;2023-11-22T07:24:42;15.60;;;6.12;;
71566;SDS011;59403;47.456;19.120;2023-11-22T07:27:10;10.38;;;5.60;;
71566;SDS011;59403;47.456;19.120;2023-11-22T07:29:37;11.90;;;6.03;;
71566;SDS011;59403;47.456;19.120;2023-11-22T07:32:06;9.88;;;5.68;;
71566;SDS011;59403;47.456;19.120;2023-11-22T07:34:36;12.13;;;6.10;;
71566;SDS011;59403;47.456;19.120;2023-11-22T07:37:04;8.30;;;5.15;;
71566;SDS011;59403;47.456;19.120;2023-11-22T07:39:35;13.25;;;6.43;;
71566;SDS011;59403;47.456;19.120;2023-11-22T07:45:34;12.25;;;5.37;;
71566;SDS011;59403;47.456;19.120;2023-11-22T07:48:30;11.87;;;6.50;;
71566;SDS011;59403;47.456;19.120;2023-11-22T07:51:15;11.02;;;5.93;;
71566;SDS011;59403;47.456;19.120;2023-11-22T07:53:54;11.23;;;6.47;;
71566;SDS011;59403;47.456;19.120;2023-11-22T07:56:21;10.15;;;6.15;;
71566;SDS011;59403;47.456;19.120;2023-11-22T07:59:09;12.95;;;5.75;;
71566;SDS011;59403;47.456;19.120;2023-11-22T08:13:27;12.52;;;6.57;;
71566;SDS011;59403;47.456;19.120;2023-11-22T08:15:55;11.77;;;6.43;;
71566;SDS011;59403;47.456;19.120;2023-11-22T08:18:22;10.20;;;6.07;;
71566;SDS011;59403;47.456;19.120;2023-11-22T08:20:49;13.80;;;6.20;;
71566;SDS011;59403;47.456;19.120;2023-11-22T08:23:16;9.63;;;5.57;;
71566;SDS011;59403;47.456;19.120;2023-11-22T08:25:43;10.90;;;6.60;;
71566;SDS011;59403;47.456;19.120;2023-11-22T08:28:12;12.73;;;6.30;;
71566;SDS011;59403;47.456;19.120;2023-11-22T08:30:38;10.23;;;5.93;;
71566;SDS011;59403;47.456;19.120;2023-11-22T08:33:06;11.40;;;5.57;;
71566;SDS011;59403;47.456;19.120;2023-11-22T08:35:33;10.40;;;5.90;;
71566;SDS011;59403;47.456;19.120;2023-11-22T08:38:00;11.35;;;6.75;;
71566;SDS011;59403;47.456;19.120;2023-11-22T08:40:28;14.77;;;6.00;;
71566;SDS011;59403;47.456;19.120;2023-11-22T08:42:55;7.43;;;5.32;;
71566;SDS011;59403;47.456;19.120;2023-11-22T08:45:23;11.60;;;6.93;;
71566;SDS011;59403;47.456;19.120;2023-11-22T08:47:50;11.65;;;5.95;;
71566;SDS011;59403;47.456;19.120;2023-11-22T08:50:17;9.02;;;5.45;;
71566;SDS011;59403;47.456;19.120;2023-11-22T08:52:45;8.57;;;5.33;;
71566;SDS011;59403;47.456;19.120;2023-11-22T08:55:12;10.88;;;5.95;;
71566;SDS011;59403;47.456;19.120;2023-11-22T08:57:39;13.80;;;6.78;;
71566;SDS011;59403;47.456;19.120;2023-11-22T09:00:07;10.27;;;6.43;;
71566;SDS011;59403;47.456;19.120;2023-11-22T09:02:37;10.68;;;6.05;;
71566;SDS011;59403;47.456;19.120;2023-11-22T09:05:05;9.57;;;5.77;;
71566;SDS011;59403;47.456;19.120;2023-11-22T09:07:33;11.80;;;5.93;;
71566;SDS011;59403;47.456;19.120;2023-11-22T09:10:01;9.88;;;6.07;;
71566;SDS011;59403;47.456;19.120;2023-11-22T09:12:34;9.57;;;5.72;;
71566;SDS011;59403;47.456;19.120;2023-11-22T09:15:03;10.18;;;5.80;;
71566;SDS011;59403;47.456;19.120;2023-11-22T09:17:34;9.77;;;5.73;;
71566;SDS011;59403;47.456;19.120;2023-11-22T09:20:02;9.52;;;5.85;;
71566;SDS011;59403;47.456;19.120;2023-11-22T09:22:32;9.10;;;5.95;;
71566;SDS011;59403;47.456;19.120;2023-11-22T09:24:58;10.48;;;5.85;;
71566;SDS011;59403;47.456;19.120;2023-11-22T09:27:26;8.60;;;5.03;;
71566;SDS011;59403;47.456;19.120;2023-11-22T09:29:52;11.83;;;5.43;;
71566;SDS011;59403;47.456;19.120;2023-11-22T09:32:19;9.90;;;5.53;;
71566;SDS011;59403;47.456;19.120;2023-11-22T09:34:46;8.35;;;5.55;;
71566;SDS011;59403;47.456;19.120;2023-11-22T09:37:14;10.38;;;5.50;;
71566;SDS011;59403;47.456;19.120;2023-11-22T09:39:41;8.90;;;5.20;;
71566;SDS011;59403;47.456;19.120;2023-11-22T09:42:08;8.47;;;5.30;;
71566;SDS011;59403;47.456;19.120;2023-11-22T09:44:37;8.98;;;4.90;;
71566;SDS011;59403;47.456;19.120;2023-11-22T09:47:04;9.23;;;5.45;;
71566;SDS011;59403;47.456;19.120;2023-11-22T09:49:32;9.43;;;5.78;;
71566;SDS011;59403;47.456;19.120;2023-11-22T09:52:01;11.50;;;5.72;;
71566;SDS011;59403;47.456;19.120;2023-11-22T09:54:30;8.30;;;5.20;;
71566;SDS011;59403;47.456;19.120;2023-11-22T09:57:00;8.63;;;5.20;;
71566;SDS011;59403;47.456;19.120;2023-11-22T09:59:28;9.38;;;5.70;;
71566;SDS011;59403;47.456;19.120;2023-11-22T10:01:57;9.90;;;6.07;;
71566;SDS011;59403;47.456;19.120;2023-11-22T10:04:25;9.65;;;5.47;;
71566;SDS011;59403;47.456;19.120;2023-11-22T10:06:54;9.97;;;5.37;;
71566;SDS011;59403;47.456;19.120;2023-11-22T10:09:23;9.25;;;5.12;;
71566;SDS011;59403;47.456;19.120;2023-11-22T10:11:53;11.43;;;5.72;;
71566;SDS011;59403;47.456;19.120;2023-11-22T10:14:24;9.18;;;4.97;;
71566;SDS011;59403;47.456;19.120;2023-11-22T10:16:57;8.65;;;5.12;;
71566;SDS011;59403;47.456;19.120;2023-11-22T10:19:25;8.00;;;5.10;;
71566;SDS011;59403;47.456;19.120;2023-11-22T10:22:03;7.95;;;4.87;;
71566;SDS011;59403;47.456;19.120;2023-11-22T10:24:31;9.05;;;5.07;;
71566;SDS011;59403;47.456;19.120;2023-11-22T10:27:00;9.18;;;5.30;;
71566;SDS011;59403;47.456;19.120;2023-11-22T10:29:27;9.82;;;5.40;;
71566;SDS011;59403;47.456;19.120;2023-11-22T10:31:54;10.07;;;5.80;;
71566;SDS011;59403;47.456;19.120;2023-11-22T10:34:22;11.68;;;5.32;;
71566;SDS011;59403;47.456;19.120;2023-11-22T10:36:50;8.65;;;5.80;;
71566;SDS011;59403;47.456;19.120;2023-11-22T10:39:20;9.35;;;6.20;;
71566;SDS011;59403;47.456;19.120;2023-11-22T10:41:47;10.00;;;5.40;;
71566;SDS011;59403;47.456;19.120;2023-11-22T10:44:17;8.77;;;4.90;;
71566;SDS011;59403;47.456;19.120;2023-11-22T10:46:47;9.20;;;5.87;;
71566;SDS011;59403;47.456;19.120;2023-11-22T10:49:15;10.23;;;5.87;;
71566;SDS011;59403;47.456;19.120;2023-11-22T10:51:43;9.98;;;5.85;;
71566;SDS011;59403;47.456;19.120;2023-11-22T10:54:15;8.52;;;5.65;;
71566;SDS011;59403;47.456;19.120;2023-11-22T10:56:42;8.93;;;5.27;;
71566;SDS011;59403;47.456;19.120;2023-11-22T10:59:20;11.73;;;5.32;;
71566;SDS011;59403;47.456;19.120;2023-11-22T11:01:49;9.40;;;5.20;;
71566;SDS011;59403;47.456;19.120;2023-11-22T11:04:23;8.02;;;5.20;;
71566;SDS011;59403;47.456;19.120;2023-11-22T11:06:54;8.52;;;4.80;;
71566;SDS011;59403;47.456;19.120;2023-11-22T11:09:22;7.43;;;4.40;;
71566;SDS011;59403;47.456;19.120;2023-11-22T11:11:52;8.48;;;5.10;;
71566;SDS011;59403;47.456;19.120;2023-11-22T11:14:20;8.88;;;5.28;;
71566;SDS011;59403;47.456;19.120;2023-11-22T11:16:47;7.28;;;4.50;;
71566;SDS011;59403;47.456;19.120;2023-11-22T11:19:19;7.78;;;4.25;;
71566;SDS011;59403;47.456;19.120;2023-11-22T11:21:47;9.03;;;4.50;;
71566;SDS011;59403;47.456;19.120;2023-11-22T11:24:14;10.13;;;4.68;;
71566;SDS011;59403;47.456;19.120;2023-11-22T11:26:42;9.82;;;5.03;;
71566;SDS011;59403;47.456;19.120;2023-11-22T11:32:02;7.25;;;4.47;;
71566;SDS011;59403;47.456;19.120;2023-11-22T11:34:29;8.53;;;4.40;;
71566;SDS011;59403;47.456;19.120;2023-11-22T11:36:56;7.87;;;4.50;;
71566;SDS011;59403;47.456;19.120;2023-11-22T11:39:26;7.25;;;4.37;;
71566;SDS011;59403;47.456;19.120;2023-11-22T11:42:07;7.78;;;5.07;;
71566;SDS011;59403;47.456;19.120;2023-11-22T11:44:36;9.43;;;5.62;;
71566;SDS011;59403;47.456;19.120;2023-11-22T11:47:10;8.40;;;5.43;;
71566;SDS011;59403;47.456;19.120;2023-11-22T11:49:37;9.18;;;5.47;;
71566;SDS011;59403;47.456;19.120;2023-11-22T11:52:05;8.43;;;5.75;;
71566;SDS011;59403;47.456;19.120;2023-11-22T11:54:33;11.35;;;6.07;;
71566;SDS011;59403;47.456;19.120;2023-11-22T11:57:00;9.95;;;6.30;;
71566;SDS011;59403;47.456;19.120;2023-11-22T11:59:27;10.50;;;6.00;;
71566;SDS011;59403;47.456;19.120;2023-11-22T12:01:56;11.82;;;6.43;;
71566;SDS011;59403;47.456;19.120;2023-11-22T12:04:24;9.45;;;6.10;;
71566;SDS011;59403;47.456;19.120;2023-11-22T12:06:56;9.18;;;6.03;;
71566;SDS011;59403;47.456;19.120;2023-11-22T12:09:34;10.00;;;5.85;;
71566;SDS011;59403;47.456;19.120;2023-11-22T12:12:01;8.93;;;5.70;;
71566;SDS011;59403;47.456;19.120;2023-11-22T12:14:28;9.23;;;5.60;;
71566;SDS011;59403;47.456;19.120;2023-11-22T12:16:56;10.23;;;5.78;;
71566;SDS011;59403;47.456;19.120;2023-11-22T12:19:24;9.65;;;5.97;;
71566;SDS011;59403;47.456;19.120;2023-11-22T12:21:53;9.25;;;5.45;;
71566;SDS011;59403;47.456;19.120;2023-11-22T12:24:20;10.03;;;5.43;;
71566;SDS011;59403;47.456;19.120;2023-11-22T12:26:47;9.90;;;5.78;;
71566;SDS011;59403;47.456;19.120;2023-11-22T12:29:15;8.23;;;5.55;;
71566;SDS011;59403;47.456;19.120;2023-11-22T12:31:44;8.93;;;5.25;;
71566;SDS011;59403;47.456;19.120;2023-11-22T12:34:13;8.25;;;5.10;;
71566;SDS011;59403;47.456;19.120;2023-11-22T12:36:41;8.80;;;5.00;;
71566;SDS011;59403;47.456;19.120;2023-11-22T12:39:08;7.93;;;4.93;;
71566;SDS011;59403;47.456;19.120;2023-11-22T12:41:41;9.65;;;4.93;;
71566;SDS011;59403;47.456;19.120;2023-11-22T12:44:10;8.52;;;4.80;;
71566;SDS011;59403;47.456;19.120;2023-11-22T12:46:49;9.13;;;4.45;;
71566;SDS011;59403;47.456;19.120;2023-11-22T12:49:23;12.33;;;5.27;;
71566;SDS011;59403;47.456;19.120;2023-11-22T12:51:51;9.98;;;4.80;;
71566;SDS011;59403;47.456;19.120;2023-11-22T12:54:19;9.13;;;4.62;;
71566;SDS011;59403;47.456;19.120;2023-11-22T12:56:48;9.48;;;4.87;;
71566;SDS011;59403;47.456;19.120;2023-11-22T12:59:23;10.02;;;5.35;;
71566;SDS011;59403;47.456;19.120;2023-11-22T13:01:52;8.87;;;5.00;;
71566;SDS011;59403;47.456;19.120;2023-11-22T13:04:20;9.45;;;4.75;;
71566;SDS011;59403;47.456;19.120;2023-11-22T13:06:48;8.85;;;5.05;;
71566;SDS011;59403;47.456;19.120;2023-11-22T13:09:15;9.50;;;4.80;;
71566;SDS011;59403;47.456;19.120;2023-11-22T13:11:43;9.68;;;4.72;;
71566;SDS011;59403;47.456;19.120;2023-11-22T13:14:10;9.87;;;5.30;;
71566;SDS011;59403;47.456;19.120;2023-11-22T13:16:39;10.15;;;5.22;;
71566;SDS011;59403;47.456;19.120;2023-11-22T13:19:06;14.27;;;6.35;;
71566;SDS011;59403;47.456;19.120;2023-11-22T13:21:34;12.25;;;6.20;;
71566;SDS011;59403;47.456;19.120;2023-11-22T13:24:02;14.23;;;7.65;;
71566;SDS011;59403;47.456;19.120;2023-11-22T13:26:31;11.67;;;6.67;;
71566;SDS011;59403;47.456;19.120;2023-11-22T13:28:59;13.32;;;7.53;;
71566;SDS011;59403;47.456;19.120;2023-11-22T13:31:26;16.83;;;7.47;;
71566;SDS011;59403;47.456;19.120;2023-11-22T13:33:53;13.45;;;7.25;;
71566;SDS011;59403;47.456;19.120;2023-11-22T13:36:20;11.00;;;6.75;;
71566;SDS011;59403;47.456;19.120;2023-11-22T13:38:46;12.43;;;7.20;;
71566;SDS011;59403;47.456;19.120;2023-11-22T13:41:15;13.70;;;7.90;;
71566;SDS011;59403;47.456;19.120;2023-11-22T13:43:41;13.13;;;7.40;;
71566;SDS011;59403;47.456;19.120;2023-11-22T13:46:08;14.07;;;8.00;;
71566;SDS011;59403;47.456;19.120;2023-11-22T13:48:37;15.52;;;8.20;;
71566;SDS011;59403;47.456;19.120;2023-11-22T13:51:04;14.30;;;8.13;;
71566;SDS011;59403;47.456;19.120;2023-11-22T13:53:33;12.20;;;7.20;;
71566;SDS011;59403;47.456;19.120;2023-11-22T13:56:03;15.68;;;8.50;;
71566;SDS011;59403;47.456;19.120;2023-11-22T13:58:35;12.37;;;7.87;;
71566;SDS011;59403;47.456;19.120;2023-11-22T14:01:02;12.35;;;7.90;;
71566;SDS011;59403;47.456;19.120;2023-11-22T14:06:18;12.63;;;8.02;;
71566;SDS011;59403;47.456;19.120;2023-11-22T14:08:45;13.55;;;8.88;;
71566;SDS011;59403;47.456;19.120;2023-11-22T14:11:12;14.48;;;8.93;;
71566;SDS011;59403;47.456;19.120;2023-11-22T14:13:40;15.73;;;9.90;;
71566;SDS011;59403;47.456;19.120;2023-11-22T14:16:08;14.53;;;9.03;;
71566;SDS011;59403;47.456;19.120;2023-11-22T14:18:35;15.90;;;9.07;;
71566;SDS011;59403;47.456;19.120;2023-11-22T14:21:01;17.45;;;10.02;;
71566;SDS011;59403;47.456;19.120;2023-11-22T14:23:29;17.70;;;9.15;;
71566;SDS011;59403;47.456;19.120;2023-11-22T14:25:56;14.90;;;9.05;;
71566;SDS011;59403;47.456;19.120;2023-11-22T14:28:23;16.43;;;9.23;;
71566;SDS011;59403;47.456;19.120;2023-11-22T14:30:51;15.18;;;9.20;;
71566;SDS011;59403;47.456;19.120;2023-11-22T14:33:19;17.10;;;8.43;;
71566;SDS011;59403;47.456;19.120;2023-11-22T14:38:27;15.07;;;8.63;;
71566;SDS011;59403;47.456;19.120;2023-11-22T14:40:55;14.10;;;8.67;;
71566;SDS011;59403;47.456;19.120;2023-11-22T14:43:22;15.02;;;8.60;;
71566;SDS011;59403;47.456;19.120;2023-11-22T14:45:49;13.90;;;8.60;;
71566;SDS011;59403;47.456;19.120;2023-11-22T14:48:18;14.98;;;8.15;;
71566;SDS011;59403;47.456;19.120;2023-11-22T14:50:44;14.65;;;8.20;;
71566;SDS011;59403;47.456;19.120;2023-11-22T14:53:11;14.57;;;8.87;;
71566;SDS011;59403;47.456;19.120;2023-11-22T14:55:38;14.63;;;7.70;;
71566;SDS011;59403;47.456;19.120;2023-11-22T14:58:07;14.23;;;8.55;;
71566;SDS011;59403;47.456;19.120;2023-11-22T15:00:34;12.30;;;7.90;;
71566;SDS011;59403;47.456;19.120;2023-11-22T15:03:01;13.82;;;8.48;;
71566;SDS011;59403;47.456;19.120;2023-11-22T15:05:29;12.90;;;7.53;;
71566;SDS011;59403;47.456;19.120;2023-11-22T15:07:56;13.25;;;7.65;;